CDT,Max TemperatureF,Mean TemperatureF,Min TemperatureF,Max Dew PointF,MeanDew PointF,Min DewpointF,Max Humidity, Mean Humidity, Min Humidity, Max Sea Level PressureIn, Mean Sea Level PressureIn, Min Sea Level PressureIn, Max VisibilityMiles, Mean VisibilityMiles, Min VisibilityMiles, Max Wind SpeedMPH, Mean Wind SpeedMPH, Max Gust SpeedMPH,PrecipitationIn, CloudCover, Events, WindDirDegrees
2011-9-1,98,85,72,70,65,62,84,59,33,30.07,30.01,29.96,10,9,7,13,5,17,0.00,0,,213
2011-9-2,99,84,68,70,67,65,90,63,35,30.01,29.96,29.90,10,8,6,10,2,14,0.00,0,,304
2011-9-3,99,84,69,72,68,64,90,62,33,29.93,29.87,29.80,10,7,2,15,2,20,0.00,0,,221
2011-9-4,78,73,68,70,67,57,87,77,66,29.92,29.88,29.79,10,8,4,16,8,22,0.18,6,Rain-Thunderstorm,5
2011-9-5,72,65,58,56,50,45,72,60,47,29.94,29.91,29.88,10,10,10,26,16,36,0.00,2,,19
2011-9-6,75,64,52,49,47,45,77,58,38,30.02,29.97,29.93,10,10,10,24,13,31,0.00,0,,12
2011-9-7,78,66,53,50,48,44,83,60,36,30.08,30.04,30.00,10,10,10,18,9,24,0.00,0,,342
2011-9-8,79,65,51,54,50,45,89,61,33,30.06,30.00,29.94,10,10,10,17,6,24,0.00,2,,334
2011-9-9,72,63,54,62,56,51,97,77,57,29.95,29.92,29.90,10,9,2,15,4,20,0.02,6,Rain,271
2011-9-10,81,67,52,63,57,51,100,73,45,30.00,29.96,29.93,10,4,0,14,3,18,T,5,Fog-Rain,277
2011-9-11,84,71,58,63,59,56,93,67,40,30.06,30.02,29.99,10,10,8,10,2,15,0.00,3,,50
2011-9-12,87,71,55,62,56,54,93,64,35,30.13,30.06,29.99,10,7,2,13,3,17,0.00,0,,243
2011-9-13,92,79,66,62,59,56,81,58,34,29.99,29.95,29.90,10,10,9,15,6,21,0.00,0,,209
2011-9-14,80,69,57,68,59,54,93,74,54,30.04,29.92,29.78,10,7,0,39,7,48,1.33,5,Fog-Rain-Thunderstorm,24
2011-9-15,68,60,51,54,46,39,89,63,37,30.26,30.18,30.05,10,10,9,24,12,35,0.00,3,,20
2011-9-16,70,62,54,52,43,39,86,61,36,30.28,30.21,30.17,10,10,10,13,5,17,0.00,3,,61
2011-9-17,74,64,54,57,52,48,93,67,41,30.25,30.17,30.12,10,10,10,8,2,12,T,4,Rain,125
2011-9-18,81,71,61,70,65,57,93,76,58,30.14,30.07,30.00,10,7,2,15,5,22,0.37,6,Rain-Thunderstorm,178
2011-9-19,77,71,64,66,64,62,93,79,64,30.03,29.99,29.95,10,9,2,14,5,20,0.24,7,Rain,236
2011-9-20,73,67,61,65,63,60,93,83,73,30.05,30.01,29.97,10,7,3,8,2,12,0.00,7,,64
2011-9-21,82,72,61,65,62,59,100,73,46,30.08,30.02,29.98,10,4,0,10,3,16,0.00,5,Fog,264
2011-9-22,70,63,56,55,53,51,93,75,57,30.14,30.10,30.07,10,9,5,15,5,20,0.36,5,Rain,2
2011-9-23,72,60,48,54,51,46,100,71,41,30.15,30.08,29.99,10,8,0,9,3,14,T,5,Fog-Rain,314
2011-9-24,75,66,57,58,54,51,90,68,46,29.98,29.92,29.85,10,10,4,17,5,22,0.04,6,Rain,166
2011-9-25,60,58,56,58,56,55,93,90,87,29.95,29.78,29.68,10,5,0,16,8,21,3.38,8,Rain-Thunderstorm,44
2011-9-26,71,61,51,54,50,45,96,68,40,29.89,29.83,29.75,10,7,0,15,6,18,0.00,4,Fog,259
2011-9-27,74,63,52,57,52,47,93,73,53,29.89,29.85,29.83,10,10,9,16,7,22,0.00,4,,231
2011-9-28,78,64,49,59,55,48,93,72,50,29.87,29.84,29.80,10,10,6,16,5,22,0.00,4,,268
2011-9-29,85,71,57,61,54,36,93,61,29,29.92,29.85,29.79,10,10,6,15,6,23,0.00,1,,273
2011-9-30,71,62,52,42,39,36,64,46,28,30.06,30.02,29.94,10,10,10,21,8,26,0.00,0,,319